Station: Victoria Portable Aws N (Cfa)  

  Atmospheric Gas Attenuation - ITU Rec 676-11   ----------------- dB/100km -----------------
Date Time Temp RH % AH g/m3 Dew Point Wind Direction Speed kph Gust kph Barometer mB Rainfall Since 9am 24GHz 47GHz 76GHz 122GHz 134GHz 241GHz
08/05 12:30 17.5 62 9.24 10.2 17 22 1013.1 0 20.8 25.8 40.5 106.3 102.0 351.4
08/05 12:20 17 63 9.12 10 17 22 1013.1 0 20.5 25.8 40.2 105.7 101.1 348.3
08/05 12:10 16.8 65 9.29 10.3 17 24 1013.1 0 20.9 26.1 41.0 107.7 103.5 356.8
08/05 12:00 16.7 63 8.95 9.6 19 24 1013.1 0 20.2 25.6 39.7 104.3 99.3 341.9
08/05 11:50 16.4 64 8.93 9.7 20 24 1013.1 0 20.2 25.7 39.8 104.5 99.4 342.3
08/05 11:40 16.5 67 9.41 10.4 17 20 1013.1 0 21.2 26.4 41.6 109.4 105.5 363.7
08/05 11:30 16.4 68 9.49 10.5 15 19 1013.1 0 21.4 26.6 42.0 110.4 106.7 367.8
08/05 11:20 16.1 69 9.46 10.4 17 20 1013.1 0 21.3 26.6 42.1 110.5 106.7 367.9
08/05 11:10 15.9 70 9.48 10.5 19 26 1013.1 0 21.4 26.7 42.2 111.0 107.2 369.7
08/05 11:00 15.8 72 9.69 10.9 19 22 1013.1 0 21.8 27.1 43.1 113.4 110.2 380.0
08/05 10:50 15.8 71 9.56 10.6 19 24 1013.1 0 21.5 26.9 42.6 112.0 108.4 373.9
08/05 10:40 15.6 70 9.31 10.3 17 20 1013.1 0 21.0 26.5 41.7 109.6 105.4 363.2
08/05 10:30 15.8 71 9.56 10.7 17 20 1013.1 0 21.5 26.9 42.6 112.0 108.4 373.9
08/05 10:20 15.9 71 9.61 10.8 17 20 1013.1 0 21.6 26.9 42.8 112.4 109.0 375.8
08/05 10:10 15.6 74 9.84 11.1 19 20 1013.1 0 22.1 27.4 43.9 115.3 112.5 388.0
08/05 10:00 15.3 75 9.79 11 20 22 1013.1 0 22.1 27.4 43.8 115.2 112.2 387.1
08/05 09:50 15.2 76 9.86 11.1 17 20 1013.1 0 22.2 27.5 44.2 116.1 113.3 390.9
08/05 09:40 14.9 78 9.94 11.1 17 22 1013.1 0 22.4 27.8 44.7 117.5 114.9 396.2
08/05 09:30 14.5 79 9.83 11 19 22 1013.1 0 22.2 27.7 44.4 116.9 114.0 393.0
08/05 09:20 14.4 80 9.89 11 19 20 1013.1 0 22.3 27.8 44.8 117.7 114.9 396.4
08/05 09:10 14.2 81 9.89 11 15 19 1013.1 0 22.3 27.9 44.9 118.0 115.2 397.4
08/05 09:00 13.8 83 9.89 10.9 19 20 1013.1 0.2 22.4 28.0 45.1 118.6 115.8 399.5
08/05 08:50 13.7 83 9.83 10.9 17 19 1013.1 0.2 22.2 28.0 44.9 118.1 115.2 397.1
08/05 08:30 13.2 85 9.76 10.7 13 19 1013.1 0.2 22.1 28.0 44.9 118.0 114.9 396.2
08/05 08:20 12.9 86 9.69 10.6 13 17 1013.1 0.2 22.0 28.0 44.8 117.7 114.4 394.4
08/05 08:10 12.5 87 9.57 10.4 15 17 1013.1 0.2 21.7 27.9 44.5 117.0 113.3 390.6
08/05 08:00 12.1 89 9.55 10.4 15 17 1013.1 0.2 21.7 28.0 44.6 117.3 113.6 391.6
08/05 07:50 11.7 91 9.52 10.3 13 17 1013.1 0.2 21.7 28.1 44.7 117.6 113.8 392.2
08/05 07:40 11.4 92 9.44 10.2 13 15 1013.1 0.2 21.5 28.0 44.6 117.1 113.1 389.7
08/05 07:30 11 93 9.31 10 9 13 1013.1 0.2 21.3 27.9 44.2 116.3 111.9 385.3
08/05 07:20 10.8 93 9.19 9.8 6 6 1013.1 0.2 21.0 27.8 43.8 115.2 110.5 380.4
08/05 07:10 10.5 95 9.22 9.7 6 7 1013.1 0.2 21.1 27.9 44.1 116.0 111.4 383.4
08/05 07:00 10.3 95 9.1 9.5 4 4 1013.1 0.2 20.8 27.8 43.7 114.9 110.0 378.4
08/05 06:50 10.3 95 9.1 9.5 4 6 1013.1 0.2 20.8 27.8 43.7 114.9 110.0 378.4
08/05 06:40 10.5 93 9.02 9.5 4 7 1013.1 0.2 20.7 27.6 43.3 113.7 108.5 373.5
08/05 06:30 10.6 93 9.08 9.5 6 7 1013.1 0.2 20.8 27.7 43.5 114.2 109.2 376.0
08/05 06:20 10.8 92 9.1 9.6 9 11 1013.1 0.2 20.8 27.6 43.4 114.2 109.2 376.0
08/05 06:10 10.9 92 9.15 9.6 13 15 1013.1 0.2 20.9 27.7 43.6 114.6 109.8 378.0
08/05 06:00 11 91 9.11 9.6 13 15 1013.1 0.2 20.8 27.6 43.4 114.0 109.1 375.5
08/05 05:50 11.2 90 9.12 9.7 15 17 1013.1 0.2 20.8 27.5 43.3 113.8 108.9 375.0
08/05 05:40 11.2 90 9.12 9.7 15 19 1013.1 0.2 20.8 27.5 43.3 113.8 108.9 375.0
08/05 05:30 11.1 90 9.07 9.6 15 19 1013.1 0.2 20.7 27.5 43.1 113.4 108.4 373.1
08/05 05:20 11 90 9.01 9.5 19 20 1013.1 0.2 20.6 27.4 43.0 112.8 107.7 370.6
08/05 05:10 10.6 92 8.98 9.4 15 19 1013.1 0.2 20.6 27.5 43.0 113.1 107.8 371.1
08/05 05:00 10.2 93 8.85 9.1 15 17 1013.1 0.2 20.3 27.4 42.7 112.2 106.6 366.6
08/05 04:50 9.8 93 8.63 8.8 11 15 1013.1 0.2 19.9 27.1 42.0 110.3 104.0 357.7
08/05 04:40 9.4 94 8.5 8.5 9 13 1013.1 0.2 19.6 27.0 41.6 109.3 102.8 353.2
08/05 04:30 9 95 8.38 8.2 7 9 1013.1 0.2 19.4 27.0 41.3 108.5 101.6 349.1
08/05 04:20 9.1 94 8.34 8.2 7 9 1013.1 0.2 19.3 26.9 41.1 108.0 100.9 346.7
08/05 04:10 9.1 94 8.34 8.2 7 9 1013.1 0.2 19.3 26.9 41.1 108.0 100.9 346.7
08/05 04:00 9 94 8.29 8.1 7 9 1013.1 0.2 19.2 26.8 41.0 107.5 100.4 344.7
08/05 03:50 8.9 93 8.15 7.9 6 7 1013.1 0.2 18.9 26.6 40.4 106.1 98.5 338.3
08/05 03:40 9 93 8.2 7.9 7 9 1013.1 0.2 19.0 26.6 40.6 106.5 99.1 340.3
08/05 03:30 8.8 93 8.1 7.7 7 9 1013.1 0.2 18.8 26.5 40.3 105.7 98.0 336.4
08/05 03:20 8.7 92 7.96 7.5 7 9 1013.1 0.2 18.5 26.3 39.7 104.2 96.2 330.0
08/05 03:10 8.7 92 7.96 7.5 7 9 1013.1 0.2 18.5 26.3 39.7 104.2 96.2 330.0
08/05 03:00 8.7 92 7.96 7.5 9 11 1013.1 0.2 18.5 26.3 39.7 104.2 96.2 330.0
08/05 02:50 8.6 92 7.91 7.4 9 13 1013.1 0.2 18.4 26.3 39.6 103.8 95.6 328.0
08/05 02:40 8.5 92 7.86 7.3 11 11 1013.1 0.2 18.3 26.2 39.4 103.4 95.0 326.0
08/05 02:30 8.4 92 7.81 7.2 9 9 1013.1 0.2 18.1 26.2 39.2 102.9 94.5 324.0
08/05 02:20 8.5 91 7.77 7.2 7 9 1013.1 0.2 18.1 26.1 39.0 102.4 93.8 321.6
08/05 02:10 8.4 91 7.72 7.1 6 7 1013.1 0.2 18.0 26.0 38.9 101.9 93.2 319.6
08/05 02:00 8.6 90 7.74 7 6 7 1013.1 0.2 18.0 26.0 38.9 101.9 93.3 319.8
08/05 01:50 8.9 88 7.71 7 6 7 1013.1 0.2 17.9 25.9 38.6 101.2 92.5 317.1
08/05 01:40 9.3 85 7.64 7 7 11 1013.1 0.2 17.7 25.6 38.1 99.9 91.1 312.2
08/05 01:30 9.5 84 7.65 7 9 11 1013.1 0.2 17.8 25.6 38.0 99.7 91.0 311.8
08/05 01:20 9.7 84 7.75 7.2 11 13 1013.1 0.2 18.0 25.7 38.4 100.6 92.1 315.8
08/05 01:10 10.1 84 7.95 7.6 13 15 1013.1 0.2 18.4 25.9 39.0 102.3 94.3 323.6
08/05 01:00 10.4 83 8 7.6 13 17 1013.1 0.2 18.5 25.9 39.0 102.4 94.6 324.8
08/05 00:50 10.7 80 7.86 7.4 13 19 1013.1 0.2 18.1 25.6 38.3 100.5 92.4 316.9
08/05 00:40 10.7 79 7.76 7.2 13 17 1013.1 0.2 17.9 25.4 37.9 99.4 91.0 312.2
08/05 00:30 10.6 79 7.71 7.1 13 15 1013.1 0.2 17.8 25.4 37.8 99.0 90.5 310.3
08/05 00:20 10.6 78 7.61 6.9 13 17 1013.1 0.2 17.6 25.2 37.4 97.9 89.1 305.6
08/05 00:10 10.6 77 7.52 6.7 13 15 1013.1 0.2 17.4 25.1 37.0 96.9 87.9 301.4
08/05 00:00 10.6 76 7.42 6.6 15 17 1013.1 0.2 17.2 24.9 36.6 95.9 86.6 296.8
07/05 23:50 10.5 75 7.28 6.3 15 19 1013.1 0.2 16.9 24.7 36.1 94.5 84.9 290.7
07/05 23:40 10.1 76 7.19 6 13 17 1013.1 0.2 16.7 24.7 35.9 94.0 84.1 288.0
07/05 23:30 9.7 77 7.1 5.9 11 13 1013.1 0.2 16.6 24.6 35.7 93.5 83.4 285.3
07/05 23:20 10.1 76 7.19 6 11 15 1013.1 0.2 16.7 24.7 35.9 94.0 84.1 288.0
07/05 23:10 10.6 72 7.03 5.8 13 15 1013.1 0.2 16.4 24.3 35.0 91.7 81.5 278.9
07/05 23:00 10.9 71 7.06 5.8 13 15 1013.1 0.2 16.4 24.2 35.0 91.7 81.6 279.2
07/05 22:50 11 70 7.01 5.8 13 17 1013.1 0.2 16.3 24.1 34.8 91.1 80.8 276.6
07/05 22:40 11 71 7.11 5.9 11 13 1013.1 0.2 16.5 24.3 35.2 92.1 82.1 281.1
07/05 22:30 11.1 70 7.05 5.9 11 15 1013.1 0.2 16.4 24.2 34.9 91.4 81.2 278.1
07/05 22:20 11.1 70 7.05 5.8 13 17 1013.1 0.2 16.4 24.2 34.9 91.4 81.2 278.1
07/05 22:10 11 70 7.01 5.7 11 13 1013.1 0.2 16.3 24.1 34.8 91.1 80.8 276.6
07/05 22:00 11 70 7.01 5.7 11 15 1013.1 0.2 16.3 24.1 34.8 91.1 80.8 276.6
07/05 21:50 11 70 7.01 5.8 11 13 1013.1 0.2 16.3 24.1 34.8 91.1 80.8 276.6
07/05 21:40 11 70 7.01 5.8 11 15 1013.1 0.2 16.3 24.1 34.8 91.1 80.8 276.6
07/05 21:30 11 71 7.11 5.9 11 13 1013.1 0.2 16.5 24.3 35.2 92.1 82.1 281.1
07/05 21:20 10.9 71 7.06 5.8 11 13 1013.1 0.2 16.4 24.2 35.0 91.7 81.6 279.2
07/05 21:10 10.7 71 6.98 5.7 9 11 1013.1 0.2 16.3 24.2 34.8 91.1 80.8 276.3
07/05 21:00 10.5 71 6.89 5.6 9 13 1013.1 0.2 16.1 24.1 34.5 90.4 79.8 272.9
07/05 20:50 10.4 71 6.84 5.4 9 11 1013.1 0.2 16.0 24.0 34.4 90.0 79.3 271.0
07/05 20:40 10.3 71 6.8 5.4 11 13 1013.1 0.2 15.9 24.0 34.3 89.7 78.8 269.5
07/05 20:30 10.4 70 6.75 5.2 9 11 1013.1 0.2 15.8 23.9 34.0 89.0 78.1 266.9
07/05 20:20 10.5 70 6.79 5.2 9 11 1013.1 0.2 15.9 23.9 34.1 89.3 78.5 268.4
07/05 20:10 10.8 68 6.72 5.2 9 11 1013.1 0.2 15.7 23.7 33.7 88.3 77.3 264.2
07/05 20:00 11 66 6.61 5 9 11 1013.1 0.2 15.5 23.5 33.2 86.9 75.7 258.6
07/05 19:50 11.1 66 6.65 5 9 11 1013.1 0.2 15.5 23.5 33.4 87.2 76.1 260.1

Last Refresh: 08-May-2026 12:10:19

Bureau of Meteorology